Bar Mills, Maine
Current Conditions -  °F | °C
As of 2:51 AM on Tuesday 21 Oct 2014 (Local Time) from KPWM Reporting Station
Overcast Overcast  
Wind Chill: 47°   Ceiling: 7500
Heat Index: 47°   Visibility: 10mi
Dew Point: 40°   Wind: 3mph
Humidity: 77%   Direction: 300°WNW
Pressure: 30.01"   Gusts: NA
Location:  43.61°N, 70.55°W
Report Text: KPWM 210651Z 30003KT 10SM BKN075 OVC100 08/04 A3001 RMK AO2 SLP163 T00830044
Loading
Personal Weather Stations






























Interactive Weather Map
Tropical Storm Tracking
New forecast layout! Learn more

10-Day Weather Forecast

Advertisements
Track Severe Weather on mobile